Time;durP1;ratioP1;P1;durP2;ratioP2;P2;SDS_P1;SDS_P2;PMS_P1;PMS_P2;Temp;Humidity;BMP_temperature;BMP_pressure;BME280_temperature;BME280_humidity;BME280_pressure;Samples;Min_cycle;Max_cycle;Signal;HPM_P1;HPM_P2
2021/10/13 00:00:53;;;;;;;22.13;9.17;;;9.60;99.90;;;;;;5087817;28;20156;-65
2021/10/13 00:03:19;;;;;;;17.03;8.67;;;9.50;99.90;;;;;;5087688;28;20167;-64
2021/10/13 00:05:44;;;;;;;16.57;9.00;;;9.50;99.90;;;;;;5087894;28;20219;-64
2021/10/13 00:08:10;;;;;;;22.93;10.00;;;9.50;99.90;;;;;;5087260;28;20550;-64
2021/10/13 00:10:36;;;;;;;22.13;10.57;;;9.80;99.90;;;;;;5086761;28;20579;-65
2021/10/13 00:13:01;;;;;;;20.13;10.30;;;9.70;99.90;;;;;;5087384;28;20168;-64
2021/10/13 00:15:27;;;;;;;24.77;10.30;;;9.40;99.90;;;;;;5087135;28;20665;-64
2021/10/13 00:17:53;;;;;;;19.33;9.77;;;9.20;99.90;;;;;;5087144;28;20172;-64
2021/10/13 00:20:18;;;;;;;29.03;10.97;;;9.20;99.90;;;;;;5087018;28;20186;-65
2021/10/13 00:22:44;;;;;;;18.60;10.03;;;9.10;99.90;;;;;;5087117;28;20189;-64
2021/10/13 00:25:10;;;;;;;21.60;10.63;;;9.00;99.90;;;;;;5086872;28;20585;-64
2021/10/13 00:27:36;;;;;;;19.63;10.30;;;9.10;99.90;;;;;;5087109;28;20178;-64
2021/10/13 00:30:02;;;;;;;20.67;10.33;;;9.10;99.90;;;;;;5086940;28;20645;-64
2021/10/13 00:32:28;;;;;;;18.50;10.30;;;9.10;99.90;;;;;;5086966;28;20164;-64
2021/10/13 00:34:54;;;;;;;22.97;10.20;;;9.10;99.90;;;;;;5086618;28;20203;-64
2021/10/13 00:37:21;;;;;;;16.53;10.23;;;9.20;99.90;;;;;;5086812;28;20160;-64
2021/10/13 00:39:46;;;;;;;19.43;10.07;;;9.20;99.90;;;;;;5086547;28;20163;-64
2021/10/13 00:42:12;;;;;;;16.37;8.80;;;9.30;99.90;;;;;;5086872;28;20156;-64
2021/10/13 00:44:38;;;;;;;19.93;9.40;;;9.30;99.90;;;;;;5086594;28;20199;-64
2021/10/13 00:47:04;;;;;;;13.97;9.80;;;9.40;99.90;;;;;;5086798;28;20166;-64
2021/10/13 00:49:31;;;;;;;23.43;9.63;;;9.40;99.90;;;;;;5086311;28;20250;-64
2021/10/13 00:51:58;;;;;;;14.23;9.13;;;9.30;99.90;;;;;;5086556;28;20194;-64
2021/10/13 00:54:24;;;;;;;21.07;9.33;;;9.30;99.90;;;;;;5085801;28;20196;-64
2021/10/13 00:56:50;;;;;;;15.47;8.77;;;9.10;99.90;;;;;;5086164;28;20535;-64
2021/10/13 00:59:15;;;;;;;17.37;9.83;;;9.00;99.90;;;;;;5085783;28;20218;-64
2021/10/13 01:01:51;;;;;;;14.17;8.67;;;9.10;99.90;;;;;;5085809;28;20166;-64
2021/10/13 01:04:34;;;;;;;18.97;9.30;;;9.10;99.90;;;;;;5086338;28;20162;-64
2021/10/13 01:07:24;;;;;;;20.07;9.83;;;9.10;99.90;;;;;;5086375;28;20590;-64
2021/10/13 01:10:04;;;;;;;20.07;9.57;;;9.20;99.90;;;;;;5085609;28;20218;-64
2021/10/13 01:12:52;;;;;;;16.00;9.77;;;9.20;99.90;;;;;;5085132;28;20542;-64
2021/10/13 01:15:40;;;;;;;14.80;8.97;;;9.20;99.90;;;;;;5086089;28;20187;-64
2021/10/13 01:18:13;;;;;;;18.67;9.13;;;9.20;99.90;;;;;;5086275;28;20168;-64
2021/10/13 01:20:58;;;;;;;20.20;9.30;;;9.00;99.90;;;;;;5085904;28;20205;-64
2021/10/13 01:23:23;;;;;;;18.20;10.30;;;9.00;99.90;;;;;;5084716;28;20159;-64
2021/10/13 01:26:27;;;;;;;19.63;10.10;;;8.90;99.90;;;;;;5085661;28;20176;-64
2021/10/13 01:28:56;;;;;;;27.27;11.33;;;9.00;99.90;;;;;;5085099;28;20199;-64
2021/10/13 01:31:36;;;;;;;19.90;9.97;;;9.00;99.90;;;;;;5086098;28;20175;-64
2021/10/13 01:34:29;;;;;;;20.73;9.83;;;9.00;99.90;;;;;;5085870;28;20163;-64
2021/10/13 01:37:07;;;;;;;15.53;9.80;;;9.10;99.90;;;;;;5085760;28;20176;-64
2021/10/13 01:39:39;;;;;;;20.27;9.40;;;9.00;99.90;;;;;;5085234;28;20163;-64
2021/10/13 01:42:06;;;;;;;16.40;10.23;;;8.90;99.90;;;;;;5085877;28;20616;-64
2021/10/13 01:44:33;;;;;;;25.23;9.40;;;8.90;99.90;;;;;;5085698;28;20160;-64
2021/10/13 01:47:01;;;;;;;13.60;9.00;;;8.90;99.90;;;;;;5085681;28;20167;-64
2021/10/13 01:49:31;;;;;;;18.53;9.27;;;8.80;99.90;;;;;;5085503;28;20160;-64
2021/10/13 01:51:57;;;;;;;17.93;9.50;;;8.80;99.90;;;;;;5086177;28;20157;-63
2021/10/13 01:54:25;;;;;;;20.67;8.47;;;9.00;99.90;;;;;;5085557;28;20266;-63
2021/10/13 01:56:52;;;;;;;19.57;8.80;;;9.00;99.90;;;;;;5085795;28;20168;-64
2021/10/13 01:59:23;;;;;;;17.07;9.13;;;9.00;99.90;;;;;;5085417;28;20198;-63
2021/10/13 02:01:51;;;;;;;12.97;8.17;;;9.00;99.90;;;;;;5085885;28;20156;-63
2021/10/13 02:04:19;;;;;;;22.30;8.43;;;9.00;99.90;;;;;;5085726;28;20160;-63
2021/10/13 02:06:47;;;;;;;16.70;8.37;;;9.00;99.90;;;;;;5085838;28;20164;-64
2021/10/13 02:09:15;;;;;;;13.50;9.17;;;9.00;99.90;;;;;;5085032;28;20211;-64
2021/10/13 02:11:41;;;;;;;15.17;8.60;;;9.20;99.90;;;;;;5086867;28;20176;-63
2021/10/13 02:14:10;;;;;;;18.37;8.20;;;9.20;99.90;;;;;;5089503;28;20160;-64
2021/10/13 02:16:37;;;;;;;18.63;8.67;;;9.20;99.90;;;;;;5089546;28;20180;-63
2021/10/13 02:19:05;;;;;;;20.80;7.67;;;9.30;99.90;;;;;;5089142;28;20539;-64
2021/10/13 02:21:36;;;;;;;13.10;7.60;;;9.40;99.90;;;;;;5089113;28;20164;-64
2021/10/13 02:24:03;;;;;;;14.60;8.20;;;9.40;99.90;;;;;;5089280;28;20156;-64
2021/10/13 02:26:52;;;;;;;14.10;8.37;;;9.40;99.90;;;;;;5088937;28;20259;-64
2021/10/13 02:29:20;;;;;;;15.13;8.07;;;9.40;99.90;;;;;;5088772;28;20244;-64
2021/10/13 02:31:46;;;;;;;17.10;8.50;;;9.40;99.90;;;;;;5089209;28;20160;-63
2021/10/13 02:34:13;;;;;;;17.30;7.93;;;9.50;99.90;;;;;;5089020;28;20171;-63
2021/10/13 02:36:39;;;;;;;16.63;8.10;;;9.40;99.90;;;;;;5089101;28;20209;-63
2021/10/13 02:39:06;;;;;;;20.77;8.20;;;9.50;99.90;;;;;;5088664;28;20172;-63
2021/10/13 02:41:33;;;;;;;17.63;8.13;;;9.30;99.90;;;;;;5088839;28;20255;-64
2021/10/13 02:43:58;;;;;;;18.70;8.50;;;9.30;99.90;;;;;;5088929;28;20164;-64
2021/10/13 02:46:47;;;;;;;17.80;8.43;;;9.30;99.90;;;;;;5088927;28;20687;-63
2021/10/13 02:49:37;;;;;;;13.03;8.23;;;9.30;99.90;;;;;;5088507;28;20168;-64
2021/10/13 02:52:14;;;;;;;23.43;8.10;;;9.10;99.90;;;;;;5089012;28;20156;-63
2021/10/13 02:54:58;;;;;;;11.13;8.37;;;9.20;99.90;;;;;;5087039;28;20195;-64
2021/10/13 02:57:33;;;;;;;11.30;8.57;;;9.20;99.90;;;;;;5087311;28;20156;-65
2021/10/13 03:00:05;;;;;;;26.63;8.30;;;9.20;99.90;;;;;;5088431;28;20205;-64
2021/10/13 03:02:36;;;;;;;22.10;8.40;;;9.20;99.90;;;;;;5088863;28;20162;-64
2021/10/13 03:05:02;;;;;;;17.87;8.80;;;9.20;99.90;;;;;;5088537;28;20190;-63
2021/10/13 03:07:34;;;;;;;11.53;7.50;;;9.20;99.90;;;;;;5088491;28;20220;-63
2021/10/13 03:10:01;;;;;;;12.13;7.43;;;9.20;99.90;;;;;;5087498;28;20684;-64
2021/10/13 03:12:35;;;;;;;11.70;8.10;;;9.30;99.90;;;;;;5088383;28;20175;-63
2021/10/13 03:15:01;;;;;;;13.90;8.50;;;9.30;99.90;;;;;;5088343;28;20222;-64
2021/10/13 03:17:29;;;;;;;13.87;8.13;;;9.40;99.90;;;;;;5088445;28;20171;-64
2021/10/13 03:19:55;;;;;;;14.77;8.53;;;9.40;99.90;;;;;;5088090;28;20161;-63
2021/10/13 03:22:24;;;;;;;17.30;8.53;;;9.50;99.90;;;;;;5087814;28;20168;-63
2021/10/13 03:24:50;;;;;;;13.33;8.60;;;9.60;99.90;;;;;;5087469;28;20164;-63
2021/10/13 03:27:15;;;;;;;10.50;8.67;;;9.60;99.90;;;;;;5088314;28;20218;-63
2021/10/13 03:29:42;;;;;;;11.77;8.13;;;9.50;99.90;;;;;;5087802;28;20176;-64
2021/10/13 03:32:08;;;;;;;16.40;8.50;;;9.60;99.90;;;;;;5088170;28;20201;-64
2021/10/13 03:34:34;;;;;;;19.83;9.77;;;9.60;99.90;;;;;;5087977;28;20172;-64
2021/10/13 03:37:00;;;;;;;19.50;8.77;;;9.60;99.90;;;;;;5088193;28;20219;-64
2021/10/13 03:39:26;;;;;;;14.43;8.60;;;9.60;99.90;;;;;;5087667;28;20176;-63
2021/10/13 03:41:51;;;;;;;15.73;8.43;;;9.50;99.90;;;;;;5087526;28;20172;-63
2021/10/13 03:44:19;;;;;;;23.47;9.13;;;9.50;99.90;;;;;;5087945;28;20171;-64
2021/10/13 03:46:45;;;;;;;25.37;10.00;;;9.40;99.90;;;;;;5087831;28;20176;-63
2021/10/13 03:49:11;;;;;;;17.87;8.57;;;9.40;99.90;;;;;;5087676;28;20182;-63
2021/10/13 03:51:36;;;;;;;15.43;8.47;;;9.40;99.90;;;;;;5087784;28;20164;-64
2021/10/13 03:54:02;;;;;;;14.77;7.77;;;9.40;99.90;;;;;;5087568;28;20739;-64
2021/10/13 03:56:32;;;;;;;17.33;8.23;;;9.30;99.90;;;;;;5087307;28;20188;-64
2021/10/13 03:58:58;;;;;;;21.37;8.23;;;9.30;99.90;;;;;;5086988;28;20231;-64
2021/10/13 04:01:24;;;;;;;23.67;8.50;;;9.40;99.90;;;;;;5086871;28;20199;-63
2021/10/13 04:03:50;;;;;;;15.47;9.17;;;9.40;99.90;;;;;;5087073;28;20653;-63
2021/10/13 04:06:16;;;;;;;13.90;7.93;;;9.40;99.90;;;;;;5087431;28;20167;-63
2021/10/13 04:08:41;;;;;;;18.40;8.73;;;9.40;99.90;;;;;;5086789;28;20176;-64
2021/10/13 04:11:07;;;;;;;18.43;8.80;;;9.40;99.90;;;;;;5086723;28;20174;-64
2021/10/13 04:13:33;;;;;;;15.83;8.50;;;9.40;99.90;;;;;;5086976;28;20168;-63
2021/10/13 04:15:59;;;;;;;17.77;8.27;;;9.40;99.90;;;;;;5087071;28;20195;-64
2021/10/13 04:18:25;;;;;;;17.30;7.87;;;9.30;99.90;;;;;;5086376;28;20191;-64
2021/10/13 04:20:50;;;;;;;16.13;8.27;;;9.50;99.90;;;;;;5085955;28;20179;-64
2021/10/13 04:23:17;;;;;;;24.73;8.13;;;9.40;99.90;;;;;;5085445;28;20164;-64
2021/10/13 04:25:43;;;;;;;17.37;7.77;;;9.50;99.90;;;;;;5086478;28;20168;-64
2021/10/13 04:28:09;;;;;;;15.33;7.30;;;9.50;99.90;;;;;;5086867;28;20199;-63
2021/10/13 04:30:37;;;;;;;14.00;8.17;;;9.50;99.90;;;;;;5086502;28;20208;-63
2021/10/13 04:33:03;;;;;;;13.90;7.23;;;9.50;99.90;;;;;;5086595;28;20159;-64
2021/10/13 04:35:29;;;;;;;13.50;7.43;;;9.50;99.90;;;;;;5086410;28;20253;-64
2021/10/13 04:37:55;;;;;;;15.63;7.40;;;9.50;99.90;;;;;;5086785;28;20164;-65
2021/10/13 04:40:21;;;;;;;12.90;6.90;;;9.60;99.90;;;;;;5085996;28;20200;-65
2021/10/13 04:42:46;;;;;;;14.50;7.10;;;9.60;99.90;;;;;;5086631;28;20156;-65
2021/10/13 04:45:12;;;;;;;12.83;6.87;;;9.60;99.90;;;;;;5086340;28;20156;-65
2021/10/13 04:47:38;;;;;;;13.93;6.83;;;9.70;99.90;;;;;;5085042;28;20213;-65
2021/10/13 04:50:04;;;;;;;24.70;7.70;;;9.70;99.90;;;;;;5086230;28;20198;-65
2021/10/13 04:52:29;;;;;;;14.47;6.87;;;9.70;99.90;;;;;;5086425;28;20164;-65
2021/10/13 04:54:55;;;;;;;9.20;7.27;;;9.80;99.90;;;;;;5085332;28;20195;-65
2021/10/13 04:57:21;;;;;;;16.83;7.53;;;9.80;99.90;;;;;;5086076;28;20156;-65
2021/10/13 04:59:47;;;;;;;13.03;7.10;;;9.90;99.90;;;;;;5085804;28;20255;-65
2021/10/13 05:02:13;;;;;;;15.30;7.60;;;9.80;99.90;;;;;;5086233;28;20148;-65
2021/10/13 05:04:38;;;;;;;14.00;7.33;;;9.80;99.90;;;;;;5086132;28;20409;-65
2021/10/13 05:07:04;;;;;;;16.73;7.57;;;9.80;99.90;;;;;;5086025;28;20171;-65
2021/10/13 05:09:30;;;;;;;9.30;6.53;;;9.90;99.90;;;;;;5085505;28;20237;-65
2021/10/13 05:11:55;;;;;;;13.23;7.13;;;9.90;99.90;;;;;;5085797;28;20172;-65
2021/10/13 05:14:21;;;;;;;17.03;7.20;;;9.90;99.90;;;;;;5086007;28;20191;-66
2021/10/13 05:16:47;;;;;;;16.90;7.33;;;9.90;99.90;;;;;;5086012;28;20199;-65
2021/10/13 05:19:12;;;;;;;13.93;7.30;;;9.80;99.90;;;;;;5085672;28;20168;-65
2021/10/13 05:21:38;;;;;;;16.97;8.07;;;9.80;99.90;;;;;;5085979;28;20167;-65
2021/10/13 05:24:05;;;;;;;14.70;7.07;;;9.80;99.90;;;;;;5084953;28;20171;-64
2021/10/13 05:26:31;;;;;;;11.93;7.20;;;9.80;99.90;;;;;;5085660;28;20180;-65
2021/10/13 05:28:57;;;;;;;13.37;6.83;;;9.80;99.90;;;;;;5085436;28;20233;-65
2021/10/13 05:31:22;;;;;;;21.00;6.87;;;10.00;99.90;;;;;;5084931;28;20301;-65
2021/10/13 05:33:48;;;;;;;16.27;6.73;;;9.90;99.90;;;;;;5085536;28;20191;-65
2021/10/13 05:36:14;;;;;;;13.63;7.50;;;9.90;99.90;;;;;;5086068;28;20192;-65
2021/10/13 05:38:39;;;;;;;14.67;7.23;;;9.90;99.90;;;;;;5085657;28;20223;-65
2021/10/13 05:41:05;;;;;;;16.43;7.60;;;10.00;99.90;;;;;;5085507;28;20191;-65
2021/10/13 05:43:30;;;;;;;14.90;7.90;;;10.00;99.90;;;;;;5085524;28;20171;-65
2021/10/13 05:45:56;;;;;;;14.43;7.23;;;10.10;99.90;;;;;;5086248;28;20159;-65
2021/10/13 05:48:22;;;;;;;10.83;6.70;;;10.10;99.90;;;;;;5089567;28;20184;-65
2021/10/13 05:50:48;;;;;;;12.57;6.90;;;10.10;99.90;;;;;;5089674;28;20555;-65
2021/10/13 05:53:14;;;;;;;11.83;6.23;;;10.10;99.90;;;;;;5088616;28;20167;-65
2021/10/13 05:55:39;;;;;;;12.73;6.70;;;10.20;99.90;;;;;;5089374;28;20563;-65
2021/10/13 05:58:06;;;;;;;13.53;6.70;;;10.20;99.90;;;;;;5089831;28;20167;-64
2021/10/13 06:00:32;;;;;;;12.83;6.17;;;10.30;99.90;;;;;;5089617;28;20164;-65
2021/10/13 06:02:59;;;;;;;11.77;6.60;;;10.30;99.90;;;;;;5089570;28;20225;-65
2021/10/13 06:05:25;;;;;;;10.57;6.00;;;10.30;99.90;;;;;;5089794;28;20187;-65
2021/10/13 06:07:51;;;;;;;9.83;6.27;;;10.30;99.90;;;;;;5088409;28;20168;-65
2021/10/13 06:10:17;;;;;;;11.03;6.23;;;10.30;99.90;;;;;;5088552;28;20250;-65
2021/10/13 06:12:42;;;;;;;16.23;6.40;;;10.30;99.90;;;;;;5089523;28;20174;-65
2021/10/13 06:15:08;;;;;;;13.13;6.57;;;10.30;99.90;;;;;;5089313;28;20200;-65
2021/10/13 06:17:34;;;;;;;16.60;5.93;;;10.30;99.90;;;;;;5089607;28;20205;-65
2021/10/13 06:20:00;;;;;;;15.80;6.30;;;10.30;99.90;;;;;;5089426;28;20535;-65
2021/10/13 06:22:25;;;;;;;12.17;6.10;;;10.40;99.90;;;;;;5089450;28;20306;-65
2021/10/13 06:24:51;;;;;;;13.87;6.80;;;10.40;99.90;;;;;;5089040;28;20210;-65
2021/10/13 06:27:17;;;;;;;10.67;5.70;;;10.40;99.90;;;;;;5089510;28;20644;-65
2021/10/13 06:29:42;;;;;;;8.53;6.03;;;10.40;99.90;;;;;;5089062;28;20637;-65
2021/10/13 06:32:08;;;;;;;9.95;6.28;;;10.50;99.90;;;;;;5089372;28;20168;-65
2021/10/13 06:34:34;;;;;;;12.60;6.27;;;10.50;99.90;;;;;;5089112;28;20217;-65
2021/10/13 06:37:00;;;;;;;13.27;6.10;;;10.50;99.90;;;;;;5089423;28;20187;-65
2021/10/13 06:39:25;;;;;;;11.23;6.73;;;10.50;99.90;;;;;;5089114;28;20156;-65
2021/10/13 06:41:51;;;;;;;19.42;7.15;;;10.60;99.90;;;;;;5088871;28;20172;-65
2021/10/13 06:44:17;;;;;;;13.73;6.90;;;10.60;99.90;;;;;;5088915;28;20253;-65
2021/10/13 06:46:43;;;;;;;11.10;6.70;;;10.60;99.90;;;;;;5088928;28;20183;-65
2021/10/13 06:49:09;;;;;;;14.83;7.40;;;10.70;99.90;;;;;;5088178;28;20429;-65
2021/10/13 06:51:35;;;;;;;15.43;7.27;;;10.80;99.90;;;;;;5088864;28;20490;-65
2021/10/13 06:54:00;;;;;;;10.37;6.77;;;10.80;99.90;;;;;;5088682;28;20182;-65
2021/10/13 06:56:26;;;;;;;11.25;7.20;;;10.80;99.90;;;;;;5088264;28;20192;-65
2021/10/13 06:58:52;;;;;;;14.63;6.95;;;10.70;99.90;;;;;;5087147;28;20191;-65
2021/10/13 07:01:17;;;;;;;11.73;7.03;;;10.70;99.90;;;;;;5088478;28;20175;-65
2021/10/13 07:03:43;;;;;;;11.88;6.78;;;10.80;99.90;;;;;;5088486;28;20160;-65
2021/10/13 07:06:09;;;;;;;12.00;6.72;;;10.90;99.90;;;;;;5088664;28;20636;-65
2021/10/13 07:08:34;;;;;;;13.82;7.13;;;11.00;99.90;;;;;;5088155;28;20172;-65
2021/10/13 07:11:00;;;;;;;14.52;7.63;;;11.00;99.90;;;;;;5086488;28;20184;-65
2021/10/13 07:13:26;;;;;;;12.02;7.50;;;11.20;99.90;;;;;;5088238;28;20168;-65
2021/10/13 07:15:52;;;;;;;15.10;7.15;;;11.30;99.90;;;;;;5087993;28;20537;-65
2021/10/13 07:18:18;;;;;;;10.98;7.07;;;11.30;99.90;;;;;;5088140;28;20190;-64
2021/10/13 07:20:44;;;;;;;10.68;7.90;;;11.40;99.90;;;;;;5088287;28;20164;-65
2021/10/13 07:23:09;;;;;;;14.65;7.43;;;11.30;99.90;;;;;;5088379;28;20168;-65
2021/10/13 07:25:35;;;;;;;10.60;6.82;;;11.40;99.90;;;;;;5087919;28;20178;-65
2021/10/13 07:28:02;;;;;;;17.10;7.55;;;11.50;99.90;;;;;;5088251;28;20262;-65
2021/10/13 07:30:30;;;;;;;8.43;6.60;;;11.40;99.90;;;;;;5088019;28;20172;-65
2021/10/13 07:32:55;;;;;;;20.10;7.72;;;11.40;99.90;;;;;;5088111;28;20157;-65
2021/10/13 07:35:22;;;;;;;10.88;6.35;;;11.40;99.90;;;;;;5087857;28;20619;-65
2021/10/13 07:37:49;;;;;;;9.90;6.53;;;11.40;99.90;;;;;;5088029;28;20156;-65
2021/10/13 07:40:15;;;;;;;13.32;6.53;;;11.50;99.90;;;;;;5087242;28;20182;-65
2021/10/13 07:42:41;;;;;;;17.65;6.45;;;11.70;99.90;;;;;;5086434;28;20168;-65
2021/10/13 07:45:07;;;;;;;12.77;6.05;;;12.00;99.90;;;;;;5087785;28;20164;-65
2021/10/13 07:47:33;;;;;;;16.08;6.95;;;12.10;99.90;;;;;;5087778;28;20168;-65
2021/10/13 07:49:59;;;;;;;14.88;6.30;;;12.20;99.90;;;;;;5087425;28;20179;-65
2021/10/13 07:52:24;;;;;;;12.55;6.85;;;12.20;99.90;;;;;;5087789;28;20164;-65
2021/10/13 07:54:50;;;;;;;10.43;6.13;;;12.10;99.90;;;;;;5087415;28;20184;-65
2021/10/13 07:57:16;;;;;;;11.85;6.30;;;12.00;99.90;;;;;;5087192;28;20164;-65
2021/10/13 07:59:41;;;;;;;14.82;5.82;;;12.10;99.90;;;;;;5087321;28;20203;-65
2021/10/13 08:02:07;;;;;;;17.25;6.90;;;12.20;99.90;;;;;;5086301;28;20231;-65
2021/10/13 08:04:33;;;;;;;14.63;6.50;;;12.30;99.90;;;;;;5087520;28;20167;-65
2021/10/13 08:06:58;;;;;;;11.10;5.72;;;12.20;99.90;;;;;;5087494;28;20168;-65
2021/10/13 08:09:24;;;;;;;11.43;5.90;;;12.20;99.90;;;;;;5086183;28;20216;-65
2021/10/13 08:11:51;;;;;;;11.05;5.13;;;12.10;99.90;;;;;;5086261;28;20180;-65
2021/10/13 08:14:17;;;;;;;15.02;6.25;;;12.00;99.90;;;;;;5087185;28;20156;-65
2021/10/13 08:16:43;;;;;;;12.70;5.45;;;12.00;99.90;;;;;;5087088;28;20214;-65
2021/10/13 08:19:09;;;;;;;10.10;5.80;;;11.90;99.90;;;;;;5086844;28;20227;-66
2021/10/13 08:21:34;;;;;;;8.30;5.40;;;12.00;99.90;;;;;;5086913;28;20156;-65
2021/10/13 08:24:00;;;;;;;23.13;8.05;;;12.00;99.90;;;;;;5087049;28;20614;-65
2021/10/13 08:26:26;;;;;;;13.57;6.38;;;12.00;99.90;;;;;;5086554;28;20178;-65
2021/10/13 08:28:52;;;;;;;12.10;6.80;;;12.10;99.90;;;;;;5086762;28;20174;-65
2021/10/13 08:31:17;;;;;;;13.70;6.25;;;12.20;99.90;;;;;;5086844;28;20581;-65
2021/10/13 08:33:43;;;;;;;12.98;5.22;;;12.40;99.90;;;;;;5085457;28;20168;-65
2021/10/13 08:36:09;;;;;;;13.77;6.55;;;12.30;99.90;;;;;;5086711;28;20206;-65
2021/10/13 08:38:34;;;;;;;10.32;5.72;;;12.30;99.90;;;;;;5086669;28;20170;-65
2021/10/13 08:41:00;;;;;;;12.98;7.18;;;12.40;99.90;;;;;;5086000;28;20243;-65
2021/10/13 08:43:26;;;;;;;17.75;7.28;;;12.60;99.90;;;;;;5086994;28;20228;-65
2021/10/13 08:45:52;;;;;;;17.23;6.20;;;12.60;99.90;;;;;;5086450;28;20536;-65
2021/10/13 08:48:18;;;;;;;19.98;7.60;;;12.70;99.90;;;;;;5086489;28;20251;-65
2021/10/13 08:50:46;;;;;;;13.80;7.35;;;12.70;99.90;;;;;;5086316;28;20179;-65
2021/10/13 08:53:14;;;;;;;13.95;7.47;;;12.90;99.90;;;;;;5086608;28;20156;-65
2021/10/13 08:55:43;;;;;;;14.18;6.78;;;12.90;99.90;;;;;;5085898;28;20192;-65
2021/10/13 08:58:10;;;;;;;11.88;7.03;;;13.30;99.90;;;;;;5086265;28;20160;-65
2021/10/13 09:00:37;;;;;;;10.40;6.28;;;13.40;99.90;;;;;;5086280;28;20171;-65
2021/10/13 09:03:03;;;;;;;11.70;7.72;;;13.50;99.90;;;;;;5086556;28;20163;-65
2021/10/13 09:05:28;;;;;;;11.88;6.90;;;13.60;99.90;;;;;;5084910;28;20168;-65
2021/10/13 09:07:56;;;;;;;13.45;7.05;;;13.70;99.90;;;;;;5086612;28;20520;-65
2021/10/13 09:10:40;;;;;;;13.52;6.47;;;13.60;99.90;;;;;;5085712;28;20200;-65
2021/10/13 09:13:15;;;;;;;11.43;6.50;;;13.60;99.90;;;;;;5086427;28;20168;-65
2021/10/13 09:15:47;;;;;;;15.20;6.25;;;13.60;99.90;;;;;;5086099;28;20194;-65
2021/10/13 09:18:13;;;;;;;14.85;6.70;;;13.60;99.90;;;;;;5086234;28;20151;-65
2021/10/13 09:20:41;;;;;;;12.30;6.78;;;13.50;99.90;;;;;;5085055;28;20191;-66
2021/10/13 09:23:29;;;;;;;11.10;5.80;;;13.60;99.90;;;;;;5084890;28;20172;-65
2021/10/13 09:26:12;;;;;;;8.90;5.45;;;13.40;99.90;;;;;;5085661;28;20179;-65
2021/10/13 09:28:39;;;;;;;13.35;5.70;;;13.40;99.90;;;;;;5085879;28;20170;-65
2021/10/13 09:31:16;;;;;;;10.20;5.53;;;13.40;99.90;;;;;;5086182;28;20179;-65
2021/10/13 09:34:05;;;;;;;12.35;4.47;;;13.40;99.90;;;;;;5085817;28;20179;-65
2021/10/13 09:36:47;;;;;;;12.18;4.85;;;13.30;99.90;;;;;;5086288;28;20298;-65
2021/10/13 09:39:18;;;;;;;8.65;4.75;;;13.60;99.90;;;;;;5085866;28;20226;-66
2021/10/13 09:42:07;;;;;;;6.47;4.63;;;13.70;99.90;;;;;;5085582;28;20167;-65
2021/10/13 09:44:37;;;;;;;13.68;5.00;;;13.90;99.90;;;;;;5086052;28;20160;-65
2021/10/13 09:47:11;;;;;;;15.60;10.93;;;13.90;99.90;;;;;;5085779;28;20152;-66
2021/10/13 09:49:43;;;;;;;7.57;4.88;;;13.80;99.90;;;;;;5085421;28;20637;-65
2021/10/13 09:52:15;;;;;;;20.45;13.10;;;13.80;99.90;;;;;;5086014;28;20160;-65
2021/10/13 09:54:46;;;;;;;10.05;5.43;;;13.90;99.90;;;;;;5085826;28;20164;-65
2021/10/13 09:57:26;;;;;;;11.93;6.43;;;14.00;99.90;;;;;;5085529;28;20175;-65
2021/10/13 09:59:59;;;;;;;13.13;5.00;;;13.90;99.90;;;;;;5085412;28;20175;-65
2021/10/13 10:02:31;;;;;;;12.63;5.10;;;14.00;99.90;;;;;;5085903;28;20144;-65
2021/10/13 10:05:04;;;;;;;19.63;12.07;;;14.20;99.90;;;;;;5085339;28;20165;-65
2021/10/13 10:07:29;;;;;;;12.15;6.55;;;13.90;99.90;;;;;;5085686;28;20212;-66
2021/10/13 10:10:14;;;;;;;12.23;6.53;;;13.80;99.90;;;;;;5085383;28;20212;-65
2021/10/13 10:12:55;;;;;;;17.75;11.70;;;13.80;99.90;;;;;;5085978;28;20597;-65
2021/10/13 10:15:31;;;;;;;13.70;8.50;;;13.80;99.90;;;;;;5085528;28;20734;-65
2021/10/13 10:17:58;;;;;;;14.60;7.03;;;13.80;99.90;;;;;;5085746;28;20168;-65
2021/10/13 10:20:41;;;;;;;15.98;6.22;;;13.70;99.90;;;;;;5085432;28;20171;-65
2021/10/13 10:23:26;;;;;;;7.57;4.80;;;13.80;99.90;;;;;;5085648;28;20164;-65
2021/10/13 10:25:51;;;;;;;10.18;6.05;;;13.90;99.90;;;;;;5084614;28;20406;-65
2021/10/13 10:28:52;;;;;;;12.50;7.57;;;14.20;99.90;;;;;;5085505;28;20712;-65
2021/10/13 10:31:29;;;;;;;7.55;2.88;;;14.40;99.90;;;;;;5085292;28;20180;-65
2021/10/13 10:34:04;;;;;;;14.15;8.77;;;14.50;99.90;;;;;;5088880;28;20164;-65
2021/10/13 10:36:30;;;;;;;7.07;3.78;;;14.70;99.90;;;;;;5089144;28;20211;-65
2021/10/13 10:38:56;;;;;;;9.00;3.70;;;14.60;99.90;;;;;;5088973;28;20161;-65
2021/10/13 10:41:49;;;;;;;14.20;3.92;;;14.90;99.90;;;;;;5088657;28;20175;-65
2021/10/13 10:44:33;;;;;;;8.80;3.40;;;14.90;99.90;;;;;;5089140;28;20243;-65
2021/10/13 10:47:05;;;;;;;6.88;3.17;;;15.10;99.90;;;;;;5088774;28;20172;-65
2021/10/13 10:49:56;;;;;;;9.15;3.20;;;15.30;99.90;;;;;;5088794;28;20629;-65
2021/10/13 10:52:27;;;;;;;7.72;2.72;;;15.30;99.90;;;;;;5088648;28;20176;-65
2021/10/13 10:54:55;;;;;;;10.35;3.25;;;15.20;99.90;;;;;;5088739;28;20175;-65
2021/10/13 10:57:47;;;;;;;11.63;2.65;;;15.30;99.90;;;;;;5088157;28;20175;-65
2021/10/13 11:00:21;;;;;;;7.18;2.55;;;15.10;99.90;;;;;;5086129;28;20429;-65
2021/10/13 11:02:51;;;;;;;6.50;2.92;;;15.30;99.90;;;;;;5088540;28;20647;-65
2021/10/13 11:05:21;;;;;;;8.65;2.63;;;15.40;99.90;;;;;;5088349;28;20178;-65
2021/10/13 11:07:48;;;;;;;11.45;2.72;;;15.30;99.90;;;;;;5088508;28;20168;-65
2021/10/13 11:10:14;;;;;;;8.82;3.00;;;15.20;99.90;;;;;;5087713;28;20291;-65
2021/10/13 11:12:47;;;;;;;8.77;2.53;;;15.30;99.90;;;;;;5087263;28;20186;-65
2021/10/13 11:15:14;;;;;;;5.88;2.38;;;15.30;99.90;;;;;;5088282;28;20244;-65
2021/10/13 11:17:40;;;;;;;9.55;2.85;;;15.30;99.90;;;;;;5087219;28;20217;-65
2021/10/13 11:20:11;;;;;;;10.98;2.80;;;15.20;99.90;;;;;;5088323;28;20246;-65
2021/10/13 11:22:37;;;;;;;9.32;2.70;;;15.10;99.90;;;;;;5087146;28;20440;-65
2021/10/13 11:25:18;;;;;;;7.07;2.38;;;15.30;99.90;;;;;;5087526;28;20160;-65
2021/10/13 11:28:01;;;;;;;8.85;2.60;;;15.60;99.90;;;;;;5087031;28;20637;-65
2021/10/13 11:30:29;;;;;;;9.23;2.42;;;15.70;99.90;;;;;;5087562;28;20171;-65
2021/10/13 11:32:56;;;;;;;14.50;2.30;;;16.10;99.90;;;;;;5087997;28;20188;-65
2021/10/13 11:35:22;;;;;;;16.90;2.97;;;16.10;99.90;;;;;;5086478;28;20187;-65
2021/10/13 11:37:49;;;;;;;6.03;2.90;;;16.10;99.90;;;;;;5088117;28;20167;-66
2021/10/13 11:40:16;;;;;;;8.48;2.88;;;16.20;99.90;;;;;;5087518;28;20541;-65
2021/10/13 11:42:42;;;;;;;7.75;3.38;;;16.20;99.90;;;;;;5087906;28;20184;-65
2021/10/13 11:45:16;;;;;;;8.43;3.00;;;16.20;99.90;;;;;;5087192;28;20664;-65
2021/10/13 11:47:43;;;;;;;14.13;3.08;;;16.20;99.90;;;;;;5087905;28;20701;-65
2021/10/13 11:50:20;;;;;;;16.50;2.95;;;16.10;99.90;;;;;;5087619;28;20175;-66
2021/10/13 11:52:57;;;;;;;11.20;3.42;;;16.10;99.90;;;;;;5087999;28;20156;-65
2021/10/13 11:55:26;;;;;;;5.85;3.10;;;16.20;99.90;;;;;;5087190;28;20195;-65
2021/10/13 11:57:53;;;;;;;9.43;3.28;;;16.20;99.90;;;;;;5087643;28;20152;-65
2021/10/13 12:00:24;;;;;;;9.82;2.70;;;16.50;99.90;;;;;;5086100;28;20168;-65
2021/10/13 12:03:04;;;;;;;14.07;3.45;;;16.90;99.90;;;;;;5086275;28;20188;-66
2021/10/13 12:05:40;;;;;;;13.95;3.90;;;17.20;99.90;;;;;;5087525;28;20526;-66
2021/10/13 12:08:17;;;;;;;14.32;3.95;;;17.50;99.90;;;;;;5086953;28;20624;-65
2021/10/13 12:10:49;;;;;;;5.90;3.33;;;17.80;99.90;;;;;;5085124;28;20258;-65
2021/10/13 12:13:29;;;;;;;11.75;4.00;;;17.90;99.90;;;;;;5087466;28;20174;-66
2021/10/13 12:16:04;;;;;;;12.73;4.28;;;18.10;99.90;;;;;;5085794;28;20215;-65
2021/10/13 12:18:42;;;;;;;12.70;3.65;;;18.20;99.90;;;;;;5087222;28;20247;-65
2021/10/13 12:21:19;;;;;;;11.25;3.83;;;17.80;99.90;;;;;;5085473;28;20199;-65
2021/10/13 12:23:44;;;;;;;8.75;2.88;;;17.70;99.90;;;;;;5087262;28;20194;-65
2021/10/13 12:26:23;;;;;;;7.38;2.60;;;17.60;99.90;;;;;;5086181;28;20583;-65
2021/10/13 12:28:53;;;;;;;7.95;2.20;;;17.40;99.90;;;;;;5085201;28;20152;-65
2021/10/13 12:31:26;;;;;;;6.07;1.60;;;17.40;99.90;;;;;;5085614;28;20168;-65
2021/10/13 12:34:00;;;;;;;5.50;2.05;;;17.40;99.90;;;;;;5086595;28;20160;-66
2021/10/13 12:36:35;;;;;;;9.93;2.17;;;17.40;99.90;;;;;;5086899;28;20191;-65
2021/10/13 12:39:10;;;;;;;2.53;1.20;;;17.60;99.90;;;;;;5086826;28;20236;-66
2021/10/13 12:41:38;;;;;;;7.07;1.80;;;17.60;99.90;;;;;;5086295;28;20525;-65
2021/10/13 12:44:19;;;;;;;4.40;1.70;;;17.50;99.90;;;;;;5086269;28;20631;-65
2021/10/13 12:47:00;;;;;;;7.78;1.80;;;17.40;99.90;;;;;;5086689;28;20217;-65
2021/10/13 12:49:38;;;;;;;7.30;1.48;;;17.00;99.90;;;;;;5085001;28;20267;-65
2021/10/13 12:52:06;;;;;;;6.30;1.60;;;16.60;99.90;;;;;;5086292;28;20202;-65
2021/10/13 12:54:36;;;;;;;10.35;6.38;;;16.20;99.90;;;;;;5086141;28;20164;-65